sensor_id;sensor_type;location;lat;lon;timestamp;P1;durP1;ratioP1;P2;durP2;ratioP2
78205;SDS011;67480;48.920;12.880;2023-04-16T00:01:46;5.00;;;4.57;;
78205;SDS011;67480;48.920;12.880;2023-04-16T00:04:11;5.32;;;4.82;;
78205;SDS011;67480;48.920;12.880;2023-04-16T00:06:37;12.48;;;5.82;;
78205;SDS011;67480;48.920;12.880;2023-04-16T00:09:02;5.78;;;5.18;;
78205;SDS011;67480;48.920;12.880;2023-04-16T00:11:27;5.53;;;4.95;;
78205;SDS011;67480;48.920;12.880;2023-04-16T00:13:53;5.20;;;4.70;;
78205;SDS011;67480;48.920;12.880;2023-04-16T00:16:18;5.05;;;4.50;;
78205;SDS011;67480;48.920;12.880;2023-04-16T00:18:43;5.45;;;4.95;;
78205;SDS011;67480;48.920;12.880;2023-04-16T00:21:08;5.10;;;4.40;;
78205;SDS011;67480;48.920;12.880;2023-04-16T00:23:34;5.07;;;4.47;;
78205;SDS011;67480;48.920;12.880;2023-04-16T00:25:59;5.55;;;5.03;;
78205;SDS011;67480;48.920;12.880;2023-04-16T00:28:25;6.65;;;4.45;;
78205;SDS011;67480;48.920;12.880;2023-04-16T00:30:51;5.40;;;4.90;;
78205;SDS011;67480;48.920;12.880;2023-04-16T00:33:17;5.00;;;4.50;;
78205;SDS011;67480;48.920;12.880;2023-04-16T00:35:44;5.55;;;5.03;;
78205;SDS011;67480;48.920;12.880;2023-04-16T00:38:10;5.00;;;4.50;;
78205;SDS011;67480;48.920;12.880;2023-04-16T00:40:35;5.03;;;4.53;;
78205;SDS011;67480;48.920;12.880;2023-04-16T00:43:00;8.50;;;4.60;;
78205;SDS011;67480;48.920;12.880;2023-04-16T00:45:26;5.65;;;5.07;;
78205;SDS011;67480;48.920;12.880;2023-04-16T00:47:51;8.90;;;4.95;;
78205;SDS011;67480;48.920;12.880;2023-04-16T00:50:16;6.30;;;5.70;;
78205;SDS011;67480;48.920;12.880;2023-04-16T00:52:42;5.53;;;5.03;;
78205;SDS011;67480;48.920;12.880;2023-04-16T00:55:14;5.43;;;4.90;;
78205;SDS011;67480;48.920;12.880;2023-04-16T00:57:41;5.05;;;4.55;;
78205;SDS011;67480;48.920;12.880;2023-04-16T01:00:07;5.50;;;4.97;;
78205;SDS011;67480;48.920;12.880;2023-04-16T01:02:33;6.10;;;5.57;;
78205;SDS011;67480;48.920;12.880;2023-04-16T01:05:00;5.93;;;5.32;;
78205;SDS011;67480;48.920;12.880;2023-04-16T01:07:26;6.07;;;5.50;;
78205;SDS011;67480;48.920;12.880;2023-04-16T01:09:51;6.65;;;5.70;;
78205;SDS011;67480;48.920;12.880;2023-04-16T01:12:16;5.78;;;5.28;;
78205;SDS011;67480;48.920;12.880;2023-04-16T01:14:41;5.40;;;4.90;;
78205;SDS011;67480;48.920;12.880;2023-04-16T01:17:07;6.95;;;5.32;;
78205;SDS011;67480;48.920;12.880;2023-04-16T01:19:32;6.07;;;5.20;;
78205;SDS011;67480;48.920;12.880;2023-04-16T01:22:00;10.77;;;5.50;;
78205;SDS011;67480;48.920;12.880;2023-04-16T01:24:26;5.80;;;5.15;;
78205;SDS011;67480;48.920;12.880;2023-04-16T01:26:51;5.63;;;5.00;;
78205;SDS011;67480;48.920;12.880;2023-04-16T01:29:17;5.28;;;4.78;;
78205;SDS011;67480;48.920;12.880;2023-04-16T01:31:42;5.72;;;5.22;;
78205;SDS011;67480;48.920;12.880;2023-04-16T01:34:07;5.68;;;4.95;;
78205;SDS011;67480;48.920;12.880;2023-04-16T01:36:33;5.80;;;5.20;;
78205;SDS011;67480;48.920;12.880;2023-04-16T01:38:58;5.95;;;5.07;;
78205;SDS011;67480;48.920;12.880;2023-04-16T01:41:23;7.38;;;5.85;;
78205;SDS011;67480;48.920;12.880;2023-04-16T01:43:48;5.82;;;5.05;;
78205;SDS011;67480;48.920;12.880;2023-04-16T01:46:17;6.63;;;5.20;;
78205;SDS011;67480;48.920;12.880;2023-04-16T01:48:44;4.88;;;4.47;;
78205;SDS011;67480;48.920;12.880;2023-04-16T01:51:09;5.63;;;5.10;;
78205;SDS011;67480;48.920;12.880;2023-04-16T01:53:35;6.00;;;5.40;;
78205;SDS011;67480;48.920;12.880;2023-04-16T01:56:00;5.20;;;4.70;;
78205;SDS011;67480;48.920;12.880;2023-04-16T01:58:30;5.47;;;4.97;;
78205;SDS011;67480;48.920;12.880;2023-04-16T02:00:56;5.35;;;4.85;;
78205;SDS011;67480;48.920;12.880;2023-04-16T02:03:22;5.53;;;5.03;;
78205;SDS011;67480;48.920;12.880;2023-04-16T02:05:48;5.45;;;4.95;;
78205;SDS011;67480;48.920;12.880;2023-04-16T02:08:15;5.53;;;4.95;;
78205;SDS011;67480;48.920;12.880;2023-04-16T02:10:40;5.93;;;5.38;;
78205;SDS011;67480;48.920;12.880;2023-04-16T02:13:05;5.00;;;4.47;;
78205;SDS011;67480;48.920;12.880;2023-04-16T02:15:30;5.15;;;4.65;;
78205;SDS011;67480;48.920;12.880;2023-04-16T02:17:56;4.93;;;4.43;;
78205;SDS011;67480;48.920;12.880;2023-04-16T02:20:21;6.00;;;5.38;;
78205;SDS011;67480;48.920;12.880;2023-04-16T02:22:47;5.63;;;5.13;;
78205;SDS011;67480;48.920;12.880;2023-04-16T02:25:12;6.30;;;5.55;;
78205;SDS011;67480;48.920;12.880;2023-04-16T02:27:38;5.60;;;4.68;;
78205;SDS011;67480;48.920;12.880;2023-04-16T02:30:04;5.25;;;4.72;;
78205;SDS011;67480;48.920;12.880;2023-04-16T02:32:29;5.57;;;4.97;;
78205;SDS011;67480;48.920;12.880;2023-04-16T02:34:55;5.50;;;5.00;;
78205;SDS011;67480;48.920;12.880;2023-04-16T02:37:21;6.57;;;5.30;;
78205;SDS011;67480;48.920;12.880;2023-04-16T02:39:46;5.78;;;5.18;;
78205;SDS011;67480;48.920;12.880;2023-04-16T02:42:13;6.90;;;5.75;;
78205;SDS011;67480;48.920;12.880;2023-04-16T02:44:40;6.05;;;5.38;;
78205;SDS011;67480;48.920;12.880;2023-04-16T02:47:05;6.30;;;5.30;;
78205;SDS011;67480;48.920;12.880;2023-04-16T02:49:30;5.38;;;4.88;;
78205;SDS011;67480;48.920;12.880;2023-04-16T02:51:56;4.97;;;4.47;;
78205;SDS011;67480;48.920;12.880;2023-04-16T02:54:21;5.63;;;5.13;;
78205;SDS011;67480;48.920;12.880;2023-04-16T02:56:49;7.25;;;5.15;;
78205;SDS011;67480;48.920;12.880;2023-04-16T02:59:15;6.28;;;5.15;;
78205;SDS011;67480;48.920;12.880;2023-04-16T03:01:40;5.45;;;4.90;;
78205;SDS011;67480;48.920;12.880;2023-04-16T03:04:06;5.50;;;5.00;;
78205;SDS011;67480;48.920;12.880;2023-04-16T03:06:31;5.32;;;4.82;;
78205;SDS011;67480;48.920;12.880;2023-04-16T03:08:56;4.68;;;4.28;;
78205;SDS011;67480;48.920;12.880;2023-04-16T03:11:22;5.22;;;4.47;;
78205;SDS011;67480;48.920;12.880;2023-04-16T03:13:47;5.22;;;4.72;;
78205;SDS011;67480;48.920;12.880;2023-04-16T03:16:13;6.40;;;4.90;;
78205;SDS011;67480;48.920;12.880;2023-04-16T03:18:38;6.93;;;4.80;;
78205;SDS011;67480;48.920;12.880;2023-04-16T03:21:03;5.85;;;4.25;;
78205;SDS011;67480;48.920;12.880;2023-04-16T03:23:29;6.45;;;5.03;;
78205;SDS011;67480;48.920;12.880;2023-04-16T03:25:54;7.25;;;5.85;;
78205;SDS011;67480;48.920;12.880;2023-04-16T03:28:20;8.68;;;6.10;;
78205;SDS011;67480;48.920;12.880;2023-04-16T03:30:54;5.97;;;5.30;;
78205;SDS011;67480;48.920;12.880;2023-04-16T03:33:19;5.28;;;4.78;;
78205;SDS011;67480;48.920;12.880;2023-04-16T03:35:45;5.63;;;5.07;;
78205;SDS011;67480;48.920;12.880;2023-04-16T03:38:10;6.10;;;5.00;;
78205;SDS011;67480;48.920;12.880;2023-04-16T03:40:36;5.15;;;4.65;;
78205;SDS011;67480;48.920;12.880;2023-04-16T03:43:01;5.38;;;4.88;;
78205;SDS011;67480;48.920;12.880;2023-04-16T03:45:26;4.68;;;4.28;;
78205;SDS011;67480;48.920;12.880;2023-04-16T03:47:52;4.70;;;4.30;;
78205;SDS011;67480;48.920;12.880;2023-04-16T03:50:17;4.53;;;4.13;;
78205;SDS011;67480;48.920;12.880;2023-04-16T03:52:43;4.68;;;4.28;;
78205;SDS011;67480;48.920;12.880;2023-04-16T03:55:10;4.97;;;4.43;;
78205;SDS011;67480;48.920;12.880;2023-04-16T03:57:36;5.00;;;4.53;;
78205;SDS011;67480;48.920;12.880;2023-04-16T04:00:01;14.18;;;9.57;;
78205;SDS011;67480;48.920;12.880;2023-04-16T04:02:27;9.05;;;6.78;;
78205;SDS011;67480;48.920;12.880;2023-04-16T04:04:52;9.20;;;6.22;;
78205;SDS011;67480;48.920;12.880;2023-04-16T04:07:17;7.40;;;5.32;;
78205;SDS011;67480;48.920;12.880;2023-04-16T04:09:43;5.18;;;4.68;;
78205;SDS011;67480;48.920;12.880;2023-04-16T04:12:08;5.32;;;4.82;;
78205;SDS011;67480;48.920;12.880;2023-04-16T04:14:34;6.30;;;5.57;;
78205;SDS011;67480;48.920;12.880;2023-04-16T04:17:03;8.25;;;5.32;;
78205;SDS011;67480;48.920;12.880;2023-04-16T04:19:29;5.50;;;4.97;;
78205;SDS011;67480;48.920;12.880;2023-04-16T04:21:54;5.85;;;5.25;;
78205;SDS011;67480;48.920;12.880;2023-04-16T04:24:20;5.28;;;4.78;;
78205;SDS011;67480;48.920;12.880;2023-04-16T04:26:45;5.63;;;4.88;;
78205;SDS011;67480;48.920;12.880;2023-04-16T04:29:12;6.13;;;5.10;;
78205;SDS011;67480;48.920;12.880;2023-04-16T04:31:37;5.82;;;5.22;;
78205;SDS011;67480;48.920;12.880;2023-04-16T04:34:03;5.63;;;4.65;;
78205;SDS011;67480;48.920;12.880;2023-04-16T04:36:28;5.30;;;4.80;;
78205;SDS011;67480;48.920;12.880;2023-04-16T04:38:53;5.18;;;4.68;;
78205;SDS011;67480;48.920;12.880;2023-04-16T04:41:19;8.50;;;6.35;;
78205;SDS011;67480;48.920;12.880;2023-04-16T04:43:45;7.70;;;6.13;;
78205;SDS011;67480;48.920;12.880;2023-04-16T04:46:10;9.25;;;7.75;;
78205;SDS011;67480;48.920;12.880;2023-04-16T04:48:36;15.57;;;11.23;;
78205;SDS011;67480;48.920;12.880;2023-04-16T04:51:01;17.42;;;12.18;;
78205;SDS011;67480;48.920;12.880;2023-04-16T04:53:28;18.33;;;13.63;;
78205;SDS011;67480;48.920;12.880;2023-04-16T04:55:53;9.90;;;8.32;;
78205;SDS011;67480;48.920;12.880;2023-04-16T04:58:19;10.68;;;7.50;;
78205;SDS011;67480;48.920;12.880;2023-04-16T05:00:44;10.70;;;8.65;;
78205;SDS011;67480;48.920;12.880;2023-04-16T05:03:10;10.73;;;8.05;;
78205;SDS011;67480;48.920;12.880;2023-04-16T05:05:36;9.25;;;7.45;;
78205;SDS011;67480;48.920;12.880;2023-04-16T05:08:05;6.35;;;5.75;;
78205;SDS011;67480;48.920;12.880;2023-04-16T05:10:30;5.72;;;4.93;;
78205;SDS011;67480;48.920;12.880;2023-04-16T05:12:56;5.35;;;4.85;;
78205;SDS011;67480;48.920;12.880;2023-04-16T05:15:21;5.75;;;4.82;;
78205;SDS011;67480;48.920;12.880;2023-04-16T05:17:46;7.15;;;5.32;;
78205;SDS011;67480;48.920;12.880;2023-04-16T05:20:12;5.82;;;5.22;;
78205;SDS011;67480;48.920;12.880;2023-04-16T05:22:37;6.75;;;5.95;;
78205;SDS011;67480;48.920;12.880;2023-04-16T05:25:02;6.10;;;5.55;;
78205;SDS011;67480;48.920;12.880;2023-04-16T05:27:28;7.07;;;5.38;;
78205;SDS011;67480;48.920;12.880;2023-04-16T05:29:53;6.45;;;5.40;;
78205;SDS011;67480;48.920;12.880;2023-04-16T05:32:19;6.15;;;5.43;;
78205;SDS011;67480;48.920;12.880;2023-04-16T05:34:44;6.00;;;5.40;;
78205;SDS011;67480;48.920;12.880;2023-04-16T05:37:09;5.88;;;5.30;;
78205;SDS011;67480;48.920;12.880;2023-04-16T05:39:35;7.55;;;5.65;;
78205;SDS011;67480;48.920;12.880;2023-04-16T05:42:00;6.40;;;5.80;;
78205;SDS011;67480;48.920;12.880;2023-04-16T05:44:25;5.70;;;5.10;;
78205;SDS011;67480;48.920;12.880;2023-04-16T05:46:51;5.95;;;5.03;;
78205;SDS011;67480;48.920;12.880;2023-04-16T05:49:16;6.07;;;5.10;;
78205;SDS011;67480;48.920;12.880;2023-04-16T05:51:42;5.93;;;5.25;;
78205;SDS011;67480;48.920;12.880;2023-04-16T05:54:08;5.35;;;4.85;;
78205;SDS011;67480;48.920;12.880;2023-04-16T05:56:33;5.30;;;4.80;;
78205;SDS011;67480;48.920;12.880;2023-04-16T05:58:59;5.57;;;5.07;;
78205;SDS011;67480;48.920;12.880;2023-04-16T06:01:24;5.47;;;4.50;;
78205;SDS011;67480;48.920;12.880;2023-04-16T06:03:50;5.85;;;4.75;;
78205;SDS011;67480;48.920;12.880;2023-04-16T06:06:15;4.80;;;4.40;;
78205;SDS011;67480;48.920;12.880;2023-04-16T06:08:40;5.55;;;4.82;;
78205;SDS011;67480;48.920;12.880;2023-04-16T06:11:06;6.53;;;5.47;;
78205;SDS011;67480;48.920;12.880;2023-04-16T06:13:31;5.53;;;5.03;;
78205;SDS011;67480;48.920;12.880;2023-04-16T06:15:56;5.32;;;4.82;;
78205;SDS011;67480;48.920;12.880;2023-04-16T06:18:22;5.93;;;5.32;;
78205;SDS011;67480;48.920;12.880;2023-04-16T06:20:47;4.88;;;4.47;;
78205;SDS011;67480;48.920;12.880;2023-04-16T06:23:13;5.95;;;4.28;;
78205;SDS011;67480;48.920;12.880;2023-04-16T06:25:38;4.97;;;4.38;;
78205;SDS011;67480;48.920;12.880;2023-04-16T06:28:03;5.18;;;4.55;;
78205;SDS011;67480;48.920;12.880;2023-04-16T06:30:28;5.63;;;5.13;;
78205;SDS011;67480;48.920;12.880;2023-04-16T06:32:54;8.82;;;7.53;;
78205;SDS011;67480;48.920;12.880;2023-04-16T06:35:19;4.88;;;4.30;;
78205;SDS011;67480;48.920;12.880;2023-04-16T06:37:45;5.00;;;4.55;;
78205;SDS011;67480;48.920;12.880;2023-04-16T06:40:11;6.70;;;5.68;;
78205;SDS011;67480;48.920;12.880;2023-04-16T06:42:36;6.55;;;5.95;;
78205;SDS011;67480;48.920;12.880;2023-04-16T06:45:01;9.30;;;8.30;;
78205;SDS011;67480;48.920;12.880;2023-04-16T06:47:27;5.43;;;4.93;;
78205;SDS011;67480;48.920;12.880;2023-04-16T06:49:52;5.75;;;5.25;;
78205;SDS011;67480;48.920;12.880;2023-04-16T06:52:17;7.43;;;6.72;;
78205;SDS011;67480;48.920;12.880;2023-04-16T06:54:43;6.88;;;6.28;;
78205;SDS011;67480;48.920;12.880;2023-04-16T06:57:08;7.30;;;6.68;;
78205;SDS011;67480;48.920;12.880;2023-04-16T06:59:33;6.82;;;6.22;;
78205;SDS011;67480;48.920;12.880;2023-04-16T07:01:59;7.80;;;7.00;;
78205;SDS011;67480;48.920;12.880;2023-04-16T07:04:24;8.32;;;7.53;;
78205;SDS011;67480;48.920;12.880;2023-04-16T07:06:49;8.70;;;7.80;;
78205;SDS011;67480;48.920;12.880;2023-04-16T07:09:15;9.88;;;8.30;;
78205;SDS011;67480;48.920;12.880;2023-04-16T07:11:41;8.25;;;7.43;;
78205;SDS011;67480;48.920;12.880;2023-04-16T07:14:07;7.95;;;6.95;;
78205;SDS011;67480;48.920;12.880;2023-04-16T07:16:33;8.52;;;7.63;;
78205;SDS011;67480;48.920;12.880;2023-04-16T07:18:58;8.90;;;8.00;;
78205;SDS011;67480;48.920;12.880;2023-04-16T07:21:23;10.02;;;8.73;;
78205;SDS011;67480;48.920;12.880;2023-04-16T07:23:50;11.15;;;8.55;;
78205;SDS011;67480;48.920;12.880;2023-04-16T07:26:15;8.75;;;7.85;;
78205;SDS011;67480;48.920;12.880;2023-04-16T07:28:40;11.70;;;8.25;;
78205;SDS011;67480;48.920;12.880;2023-04-16T07:31:05;8.75;;;7.28;;
78205;SDS011;67480;48.920;12.880;2023-04-16T07:33:31;9.38;;;8.38;;
78205;SDS011;67480;48.920;12.880;2023-04-16T07:35:56;9.02;;;8.00;;
78205;SDS011;67480;48.920;12.880;2023-04-16T07:38:21;9.88;;;7.80;;
78205;SDS011;67480;48.920;12.880;2023-04-16T07:40:47;8.00;;;7.20;;
78205;SDS011;67480;48.920;12.880;2023-04-16T07:43:12;10.07;;;9.18;;
78205;SDS011;67480;48.920;12.880;2023-04-16T07:45:39;8.23;;;7.13;;
78205;SDS011;67480;48.920;12.880;2023-04-16T07:48:04;7.20;;;6.50;;
78205;SDS011;67480;48.920;12.880;2023-04-16T07:50:30;8.20;;;7.05;;
78205;SDS011;67480;48.920;12.880;2023-04-16T07:52:55;9.40;;;7.82;;
78205;SDS011;67480;48.920;12.880;2023-04-16T07:55:21;6.60;;;5.90;;
78205;SDS011;67480;48.920;12.880;2023-04-16T07:57:46;12.38;;;7.47;;
78205;SDS011;67480;48.920;12.880;2023-04-16T08:00:11;10.00;;;7.50;;
78205;SDS011;67480;48.920;12.880;2023-04-16T08:02:37;7.25;;;6.25;;
78205;SDS011;67480;48.920;12.880;2023-04-16T08:05:02;7.47;;;6.68;;
78205;SDS011;67480;48.920;12.880;2023-04-16T08:07:28;7.70;;;6.50;;
78205;SDS011;67480;48.920;12.880;2023-04-16T08:09:53;8.95;;;7.15;;
78205;SDS011;67480;48.920;12.880;2023-04-16T08:12:19;9.32;;;6.63;;
78205;SDS011;67480;48.920;12.880;2023-04-16T08:14:45;8.75;;;7.45;;
78205;SDS011;67480;48.920;12.880;2023-04-16T08:17:11;8.15;;;7.07;;
78205;SDS011;67480;48.920;12.880;2023-04-16T08:19:37;8.48;;;7.18;;
78205;SDS011;67480;48.920;12.880;2023-04-16T08:22:03;9.63;;;8.50;;
78205;SDS011;67480;48.920;12.880;2023-04-16T08:24:28;11.82;;;10.45;;
78205;SDS011;67480;48.920;12.880;2023-04-16T08:26:53;7.65;;;6.95;;
78205;SDS011;67480;48.920;12.880;2023-04-16T08:29:18;7.30;;;6.60;;
78205;SDS011;67480;48.920;12.880;2023-04-16T08:31:45;7.95;;;7.15;;
78205;SDS011;67480;48.920;12.880;2023-04-16T08:34:10;7.35;;;6.63;;
78205;SDS011;67480;48.920;12.880;2023-04-16T08:36:36;6.82;;;6.13;;
78205;SDS011;67480;48.920;12.880;2023-04-16T08:39:01;6.13;;;5.57;;
78205;SDS011;67480;48.920;12.880;2023-04-16T08:41:27;5.53;;;5.03;;
78205;SDS011;67480;48.920;12.880;2023-04-16T08:43:56;5.10;;;4.55;;
78205;SDS011;67480;48.920;12.880;2023-04-16T08:46:24;4.50;;;4.10;;
78205;SDS011;67480;48.920;12.880;2023-04-16T08:48:53;4.63;;;4.22;;
78205;SDS011;67480;48.920;12.880;2023-04-16T08:51:20;5.85;;;5.20;;
78205;SDS011;67480;48.920;12.880;2023-04-16T08:53:53;4.60;;;4.20;;
78205;SDS011;67480;48.920;12.880;2023-04-16T08:56:26;5.00;;;4.57;;
78205;SDS011;67480;48.920;12.880;2023-04-16T08:58:52;5.28;;;4.85;;
78205;SDS011;67480;48.920;12.880;2023-04-16T09:01:19;6.30;;;5.80;;
78205;SDS011;67480;48.920;12.880;2023-04-16T09:03:48;6.55;;;5.95;;
78205;SDS011;67480;48.920;12.880;2023-04-16T09:06:14;6.28;;;5.75;;
78205;SDS011;67480;48.920;12.880;2023-04-16T09:08:43;5.97;;;5.40;;
78205;SDS011;67480;48.920;12.880;2023-04-16T09:11:10;6.65;;;5.95;;
78205;SDS011;67480;48.920;12.880;2023-04-16T09:13:38;6.20;;;5.60;;
78205;SDS011;67480;48.920;12.880;2023-04-16T09:16:04;6.13;;;5.55;;
78205;SDS011;67480;48.920;12.880;2023-04-16T09:18:31;5.57;;;5.07;;
78205;SDS011;67480;48.920;12.880;2023-04-16T09:20:56;5.03;;;4.63;;
78205;SDS011;67480;48.920;12.880;2023-04-16T09:23:21;5.75;;;5.15;;
78205;SDS011;67480;48.920;12.880;2023-04-16T09:25:48;5.65;;;5.10;;
78205;SDS011;67480;48.920;12.880;2023-04-16T09:28:37;5.30;;;4.80;;
78205;SDS011;67480;48.920;12.880;2023-04-16T09:31:10;5.25;;;4.75;;
78205;SDS011;67480;48.920;12.880;2023-04-16T09:33:37;4.93;;;4.43;;
78205;SDS011;67480;48.920;12.880;2023-04-16T09:36:02;4.85;;;4.43;;
78205;SDS011;67480;48.920;12.880;2023-04-16T09:38:44;4.38;;;3.58;;
78205;SDS011;67480;48.920;12.880;2023-04-16T09:41:11;4.53;;;4.13;;
78205;SDS011;67480;48.920;12.880;2023-04-16T09:43:37;4.07;;;3.78;;
78205;SDS011;67480;48.920;12.880;2023-04-16T09:46:03;4.30;;;3.92;;
78205;SDS011;67480;48.920;12.880;2023-04-16T09:48:32;3.75;;;3.45;;
78205;SDS011;67480;48.920;12.880;2023-04-16T09:50:59;4.28;;;3.90;;
78205;SDS011;67480;48.920;12.880;2023-04-16T09:53:29;4.30;;;4.00;;
78205;SDS011;67480;48.920;12.880;2023-04-16T09:55:56;4.30;;;3.90;;
78205;SDS011;67480;48.920;12.880;2023-04-16T09:58:22;3.50;;;3.20;;
78205;SDS011;67480;48.920;12.880;2023-04-16T10:00:48;4.03;;;3.63;;
78205;SDS011;67480;48.920;12.880;2023-04-16T10:03:13;4.47;;;4.07;;
78205;SDS011;67480;48.920;12.880;2023-04-16T10:05:39;3.95;;;3.65;;
78205;SDS011;67480;48.920;12.880;2023-04-16T10:08:11;3.30;;;3.10;;
78205;SDS011;67480;48.920;12.880;2023-04-16T10:10:37;4.65;;;4.25;;
78205;SDS011;67480;48.920;12.880;2023-04-16T10:13:02;6.00;;;5.50;;
78205;SDS011;67480;48.920;12.880;2023-04-16T10:15:28;4.95;;;4.45;;
78205;SDS011;67480;48.920;12.880;2023-04-16T10:17:54;5.95;;;5.45;;
78205;SDS011;67480;48.920;12.880;2023-04-16T10:20:20;5.05;;;4.60;;
78205;SDS011;67480;48.920;12.880;2023-04-16T10:22:47;4.72;;;4.32;;
78205;SDS011;67480;48.920;12.880;2023-04-16T10:25:12;4.53;;;4.13;;
78205;SDS011;67480;48.920;12.880;2023-04-16T10:27:38;5.85;;;5.25;;
78205;SDS011;67480;48.920;12.880;2023-04-16T10:30:04;5.65;;;4.93;;
78205;SDS011;67480;48.920;12.880;2023-04-16T10:32:32;5.43;;;4.90;;
78205;SDS011;67480;48.920;12.880;2023-04-16T10:34:58;4.68;;;4.15;;
78205;SDS011;67480;48.920;12.880;2023-04-16T10:37:30;5.03;;;4.60;;
78205;SDS011;67480;48.920;12.880;2023-04-16T10:39:57;5.68;;;5.15;;
78205;SDS011;67480;48.920;12.880;2023-04-16T10:42:23;4.60;;;4.20;;
78205;SDS011;67480;48.920;12.880;2023-04-16T10:44:49;4.70;;;4.30;;
78205;SDS011;67480;48.920;12.880;2023-04-16T10:47:15;3.83;;;3.42;;
78205;SDS011;67480;48.920;12.880;2023-04-16T10:49:40;4.00;;;3.70;;
78205;SDS011;67480;48.920;12.880;2023-04-16T10:52:11;4.40;;;4.00;;
78205;SDS011;67480;48.920;12.880;2023-04-16T10:54:38;4.45;;;3.53;;
78205;SDS011;67480;48.920;12.880;2023-04-16T10:57:07;4.10;;;3.80;;
78205;SDS011;67480;48.920;12.880;2023-04-16T10:59:34;4.20;;;3.72;;
78205;SDS011;67480;48.920;12.880;2023-04-16T11:02:05;13.50;;;8.80;;
78205;SDS011;67480;48.920;12.880;2023-04-16T11:04:33;6.10;;;5.05;;
78205;SDS011;67480;48.920;12.880;2023-04-16T11:15:00;4.80;;;4.07;;
78205;SDS011;67480;48.920;12.880;2023-04-16T11:17:40;4.22;;;3.83;;
78205;SDS011;67480;48.920;12.880;2023-04-16T11:20:06;4.35;;;4.05;;
78205;SDS011;67480;48.920;12.880;2023-04-16T11:22:34;4.05;;;3.75;;
78205;SDS011;67480;48.920;12.880;2023-04-16T11:25:00;4.28;;;3.70;;
78205;SDS011;67480;48.920;12.880;2023-04-16T11:27:26;3.17;;;2.92;;
78205;SDS011;67480;48.920;12.880;2023-04-16T11:29:57;2.95;;;2.75;;
78205;SDS011;67480;48.920;12.880;2023-04-16T11:34:55;2.97;;;2.50;;
78205;SDS011;67480;48.920;12.880;2023-04-16T11:37:21;2.95;;;2.75;;
78205;SDS011;67480;48.920;12.880;2023-04-16T11:39:57;2.58;;;2.38;;
78205;SDS011;67480;48.920;12.880;2023-04-16T11:42:22;3.83;;;3.53;;
78205;SDS011;67480;48.920;12.880;2023-04-16T11:44:51;2.90;;;2.70;;
78205;SDS011;67480;48.920;12.880;2023-04-16T11:47:17;2.72;;;2.53;;
78205;SDS011;67480;48.920;12.880;2023-04-16T11:49:42;2.40;;;2.20;;
78205;SDS011;67480;48.920;12.880;2023-04-16T11:52:08;4.85;;;4.45;;
78205;SDS011;67480;48.920;12.880;2023-04-16T11:54:33;1.77;;;1.67;;
78205;SDS011;67480;48.920;12.880;2023-04-16T11:57:00;2.00;;;1.90;;
78205;SDS011;67480;48.920;12.880;2023-04-16T11:59:28;1.90;;;1.80;;
78205;SDS011;67480;48.920;12.880;2023-04-16T12:01:53;2.33;;;2.13;;
78205;SDS011;67480;48.920;12.880;2023-04-16T12:04:20;2.30;;;2.10;;
78205;SDS011;67480;48.920;12.880;2023-04-16T12:07:06;2.35;;;2.17;;
78205;SDS011;67480;48.920;12.880;2023-04-16T12:09:38;2.90;;;2.70;;
78205;SDS011;67480;48.920;12.880;2023-04-16T12:12:09;2.70;;;2.50;;
78205;SDS011;67480;48.920;12.880;2023-04-16T12:14:50;2.70;;;2.50;;
78205;SDS011;67480;48.920;12.880;2023-04-16T12:17:24;3.33;;;2.40;;
78205;SDS011;67480;48.920;12.880;2023-04-16T12:19:51;2.50;;;2.30;;
78205;SDS011;67480;48.920;12.880;2023-04-16T12:22:29;2.75;;;2.55;;
78205;SDS011;67480;48.920;12.880;2023-04-16T12:25:02;3.58;;;2.60;;
78205;SDS011;67480;48.920;12.880;2023-04-16T12:30:06;2.72;;;2.53;;
78205;SDS011;67480;48.920;12.880;2023-04-16T12:32:32;3.38;;;2.70;;
78205;SDS011;67480;48.920;12.880;2023-04-16T12:34:57;2.65;;;2.45;;
78205;SDS011;67480;48.920;12.880;2023-04-16T12:37:23;2.95;;;2.35;;
78205;SDS011;67480;48.920;12.880;2023-04-16T12:39:48;2.60;;;2.40;;
78205;SDS011;67480;48.920;12.880;2023-04-16T12:42:13;2.72;;;2.50;;
78205;SDS011;67480;48.920;12.880;2023-04-16T12:44:39;2.95;;;2.65;;
78205;SDS011;67480;48.920;12.880;2023-04-16T12:47:04;2.70;;;2.50;;
78205;SDS011;67480;48.920;12.880;2023-04-16T12:49:29;2.60;;;2.40;;
78205;SDS011;67480;48.920;12.880;2023-04-16T12:51:55;3.78;;;2.58;;
78205;SDS011;67480;48.920;12.880;2023-04-16T12:54:20;2.65;;;2.35;;
78205;SDS011;67480;48.920;12.880;2023-04-16T12:56:46;2.60;;;2.40;;
78205;SDS011;67480;48.920;12.880;2023-04-16T12:59:11;4.78;;;3.63;;
78205;SDS011;67480;48.920;12.880;2023-04-16T13:01:36;3.28;;;2.97;;
78205;SDS011;67480;48.920;12.880;2023-04-16T13:04:02;2.92;;;2.63;;
78205;SDS011;67480;48.920;12.880;2023-04-16T13:06:28;4.28;;;2.50;;
78205;SDS011;67480;48.920;12.880;2023-04-16T13:08:56;4.25;;;2.90;;
78205;SDS011;67480;48.920;12.880;2023-04-16T13:11:22;3.00;;;2.80;;
78205;SDS011;67480;48.920;12.880;2023-04-16T13:13:47;3.90;;;3.10;;
78205;SDS011;67480;48.920;12.880;2023-04-16T13:16:12;3.50;;;3.20;;
78205;SDS011;67480;48.920;12.880;2023-04-16T13:18:37;3.55;;;2.60;;
78205;SDS011;67480;48.920;12.880;2023-04-16T13:21:04;2.10;;;1.90;;
78205;SDS011;67480;48.920;12.880;2023-04-16T13:23:29;2.60;;;2.35;;
78205;SDS011;67480;48.920;12.880;2023-04-16T13:25:55;2.35;;;2.13;;
78205;SDS011;67480;48.920;12.880;2023-04-16T13:28:20;1.80;;;1.70;;
78205;SDS011;67480;48.920;12.880;2023-04-16T13:30:46;2.15;;;1.60;;
78205;SDS011;67480;48.920;12.880;2023-04-16T13:33:11;1.88;;;1.75;;
78205;SDS011;67480;48.920;12.880;2023-04-16T13:35:37;1.55;;;1.45;;
78205;SDS011;67480;48.920;12.880;2023-04-16T13:38:03;3.50;;;3.20;;
78205;SDS011;67480;48.920;12.880;2023-04-16T13:40:29;1.50;;;1.40;;
78205;SDS011;67480;48.920;12.880;2023-04-16T13:42:55;2.15;;;2.05;;
78205;SDS011;67480;48.920;12.880;2023-04-16T13:45:20;2.17;;;1.63;;
78205;SDS011;67480;48.920;12.880;2023-04-16T13:47:45;1.98;;;1.77;;
78205;SDS011;67480;48.920;12.880;2023-04-16T13:50:10;1.95;;;1.75;;
78205;SDS011;67480;48.920;12.880;2023-04-16T13:52:36;1.88;;;1.65;;
78205;SDS011;67480;48.920;12.880;2023-04-16T13:55:01;1.83;;;1.40;;
78205;SDS011;67480;48.920;12.880;2023-04-16T13:57:27;1.65;;;1.55;;
78205;SDS011;67480;48.920;12.880;2023-04-16T13:59:53;1.30;;;1.20;;
78205;SDS011;67480;48.920;12.880;2023-04-16T14:02:19;1.27;;;1.20;;
78205;SDS011;67480;48.920;12.880;2023-04-16T14:04:46;1.88;;;1.77;;
78205;SDS011;67480;48.920;12.880;2023-04-16T14:07:11;1.65;;;1.55;;
78205;SDS011;67480;48.920;12.880;2023-04-16T14:09:37;1.90;;;1.77;;
78205;SDS011;67480;48.920;12.880;2023-04-16T14:12:02;2.25;;;2.05;;
78205;SDS011;67480;48.920;12.880;2023-04-16T14:14:27;2.50;;;2.28;;
78205;SDS011;67480;48.920;12.880;2023-04-16T14:16:53;2.88;;;2.30;;
78205;SDS011;67480;48.920;12.880;2023-04-16T14:19:18;3.00;;;2.40;;
78205;SDS011;67480;48.920;12.880;2023-04-16T14:21:44;3.40;;;2.17;;
78205;SDS011;67480;48.920;12.880;2023-04-16T14:24:09;2.67;;;2.00;;
78205;SDS011;67480;48.920;12.880;2023-04-16T14:26:35;2.17;;;2.00;;
78205;SDS011;67480;48.920;12.880;2023-04-16T14:29:00;2.30;;;2.20;;
78205;SDS011;67480;48.920;12.880;2023-04-16T14:31:25;11.48;;;9.40;;
78205;SDS011;67480;48.920;12.880;2023-04-16T14:33:51;3.50;;;3.20;;
78205;SDS011;67480;48.920;12.880;2023-04-16T14:36:16;5.60;;;4.30;;
78205;SDS011;67480;48.920;12.880;2023-04-16T14:38:41;24.15;;;12.30;;
78205;SDS011;67480;48.920;12.880;2023-04-16T14:41:07;3.92;;;3.58;;